createdAt,value
2023-03-25T00:00:07.171Z,1.50
2023-03-25T00:02:35.942Z,1.90
2023-03-25T00:05:05.996Z,1.80
2023-03-25T00:07:34.594Z,1.60
2023-03-25T00:10:04.640Z,1.90
2023-03-25T00:12:33.225Z,1.70
2023-03-25T00:15:01.859Z,1.43
2023-03-25T00:17:31.049Z,2.00
2023-03-25T00:20:00.416Z,1.37
2023-03-25T00:22:29.734Z,1.20
2023-03-25T00:24:58.363Z,1.50
2023-03-25T00:27:28.314Z,1.50
2023-03-25T00:29:56.912Z,1.20
2023-03-25T00:32:25.588Z,1.47
2023-03-25T00:34:54.225Z,1.60
2023-03-25T00:37:22.847Z,1.40
2023-03-25T00:39:51.520Z,1.63
2023-03-25T00:42:26.117Z,1.40
2023-03-25T00:44:56.417Z,1.30
2023-03-25T00:47:25.093Z,1.67
2023-03-25T00:49:53.740Z,1.47
2023-03-25T00:52:23.125Z,1.80
2023-03-25T00:54:52.836Z,1.97
2023-03-25T00:57:22.205Z,1.47
2023-03-25T00:59:51.568Z,1.10
2023-03-25T01:02:21.895Z,1.03
2023-03-25T01:04:51.335Z,1.30
2023-03-25T01:07:20.390Z,1.00
2023-03-25T01:09:49.232Z,1.27
2023-03-25T01:12:19.027Z,1.00
2023-03-25T01:14:48.429Z,1.13
2023-03-25T01:17:17.785Z,1.20
2023-03-25T01:19:47.736Z,1.20
2023-03-25T01:22:16.368Z,1.20
2023-03-25T01:24:45.144Z,1.00
2023-03-25T01:27:13.714Z,1.10
2023-03-25T01:29:42.577Z,1.10
2023-03-25T01:32:11.253Z,1.60
2023-03-25T01:34:39.902Z,1.07
2023-03-25T01:37:09.946Z,1.23
2023-03-25T01:39:38.926Z,1.10
2023-03-25T01:42:07.565Z,1.60
2023-03-25T01:45:13.730Z,1.30
2023-03-25T01:47:42.297Z,1.10
2023-03-25T01:50:15.255Z,1.23
2023-03-25T01:52:46.329Z,1.50
2023-03-25T01:55:15.201Z,1.40
2023-03-25T01:57:46.267Z,1.60
2023-03-25T02:00:16.181Z,2.17
2023-03-25T02:02:45.636Z,1.37
2023-03-25T02:05:17.921Z,1.60
2023-03-25T02:07:48.970Z,1.30
2023-03-25T02:10:17.705Z,1.60
2023-03-25T02:12:47.202Z,1.17
2023-03-25T02:15:16.606Z,1.77
2023-03-25T02:17:56.841Z,1.37
2023-03-25T02:21:08.321Z,1.30
2023-03-25T02:23:58.165Z,1.20
2023-03-25T02:26:57.908Z,1.47
2023-03-25T02:29:34.144Z,1.37
2023-03-25T02:32:11.799Z,1.60
2023-03-25T02:34:49.962Z,1.40
2023-03-25T02:37:40.333Z,1.57
2023-03-25T02:40:11.026Z,1.40
2023-03-25T02:42:40.926Z,1.83
2023-03-25T02:45:11.921Z,2.40
2023-03-25T02:47:43.203Z,1.50
2023-03-25T02:50:12.737Z,1.70
2023-03-25T02:52:42.390Z,1.80
2023-03-25T02:55:15.111Z,1.63
2023-03-25T02:57:46.020Z,1.90
2023-03-25T03:00:16.032Z,2.57
2023-03-25T03:02:46.694Z,1.80
2023-03-25T03:05:24.878Z,1.80
2023-03-25T03:07:55.267Z,1.97
2023-03-25T03:10:26.781Z,2.27
2023-03-25T03:13:00.424Z,1.97
2023-03-25T03:15:33.410Z,2.37
2023-03-25T03:18:09.225Z,1.90
2023-03-25T03:20:40.903Z,1.87
2023-03-25T03:23:11.971Z,2.17
2023-03-25T03:25:45.737Z,1.93
2023-03-25T03:28:17.293Z,1.80
2023-03-25T03:30:47.156Z,2.27
2023-03-25T03:33:17.954Z,1.97
2023-03-25T03:35:50.522Z,1.97
2023-03-25T03:38:20.441Z,2.33
2023-03-25T03:40:52.227Z,2.00
2023-03-25T03:43:23.305Z,1.90
2023-03-25T03:45:53.383Z,2.60
2023-03-25T03:48:24.283Z,2.40
2023-03-25T03:50:54.097Z,1.70
2023-03-25T03:53:24.752Z,2.17
2023-03-25T03:55:55.402Z,2.00
2023-03-25T03:58:25.584Z,1.97
2023-03-25T04:00:57.803Z,1.70
2023-03-25T04:03:28.399Z,2.37
2023-03-25T04:05:59.919Z,1.70
2023-03-25T04:08:30.485Z,1.40
2023-03-25T04:11:03.929Z,1.67
2023-03-25T04:13:34.451Z,1.33
2023-03-25T04:16:03.137Z,1.73
2023-03-25T04:18:33.656Z,1.17
2023-03-25T04:21:02.314Z,3.00
2023-03-25T04:23:31.900Z,1.40
2023-03-25T04:26:03.056Z,1.37
2023-03-25T04:28:32.062Z,1.20
2023-03-25T04:31:05.577Z,1.30
2023-03-25T04:33:35.961Z,1.43
2023-03-25T04:36:06.743Z,1.47
2023-03-25T04:38:37.683Z,1.70
2023-03-25T04:41:08.251Z,1.37
2023-03-25T04:43:39.255Z,1.30
2023-03-25T04:46:08.195Z,1.23
2023-03-25T04:48:41.400Z,1.33
2023-03-25T04:51:12.214Z,1.30
2023-03-25T04:53:41.108Z,1.17
2023-03-25T04:56:16.405Z,1.83
2023-03-25T04:58:45.543Z,1.50
2023-03-25T05:01:20.828Z,1.23
2023-03-25T05:03:50.517Z,1.50
2023-03-25T05:06:19.363Z,1.40
2023-03-25T05:08:47.951Z,1.23
2023-03-25T05:11:19.170Z,1.43
2023-03-25T05:13:47.768Z,1.50
2023-03-25T05:16:16.444Z,1.27
2023-03-25T05:18:45.073Z,1.40
2023-03-25T05:21:13.758Z,2.27
2023-03-25T05:23:43.297Z,1.60
2023-03-25T05:26:13.118Z,1.73
2023-03-25T05:28:43.355Z,1.33
2023-03-25T05:31:11.980Z,1.17
2023-03-25T05:33:42.838Z,1.20
2023-03-25T05:36:12.108Z,1.77
2023-03-25T05:38:41.914Z,1.00
2023-03-25T05:41:10.832Z,1.20
2023-03-25T05:43:39.476Z,1.10
2023-03-25T05:46:09.729Z,1.30
2023-03-25T05:48:41.287Z,0.93
2023-03-25T05:51:13.712Z,1.10
2023-03-25T05:53:43.702Z,0.90
2023-03-25T05:56:12.516Z,1.37
2023-03-25T05:58:41.153Z,0.97
2023-03-25T06:01:25.445Z,1.20
2023-03-25T06:04:02.884Z,0.77
2023-03-25T06:06:32.363Z,0.90
2023-03-25T06:09:01.148Z,0.80
2023-03-25T06:11:29.831Z,1.13
2023-03-25T06:13:58.511Z,0.77
2023-03-25T06:16:29.672Z,0.80
2023-03-25T06:19:00.100Z,1.00
2023-03-25T06:21:29.519Z,0.60
2023-03-25T06:24:18.103Z,0.87
2023-03-25T06:26:46.679Z,0.67
2023-03-25T06:29:15.455Z,0.80
2023-03-25T06:31:45.372Z,0.80
2023-03-25T06:34:14.355Z,0.73
2023-03-25T06:36:42.904Z,0.87
2023-03-25T06:39:11.547Z,0.60
2023-03-25T06:41:40.214Z,0.80
2023-03-25T06:44:09.582Z,0.70
2023-03-25T06:46:38.572Z,0.60
2023-03-25T06:49:08.648Z,0.60
2023-03-25T06:51:37.400Z,1.07
2023-03-25T06:54:06.359Z,0.90
2023-03-25T06:56:35.023Z,0.80
2023-03-25T06:59:03.710Z,0.80
2023-03-25T07:01:32.389Z,1.00
2023-03-25T07:04:01.013Z,0.80
2023-03-25T07:06:31.240Z,0.63
2023-03-25T07:08:59.862Z,0.70
2023-03-25T07:11:30.007Z,0.60
2023-03-25T07:13:58.679Z,0.60
2023-03-25T07:16:27.383Z,0.67
2023-03-25T07:18:56.806Z,0.70
2023-03-25T07:21:25.552Z,0.60
2023-03-25T07:23:55.661Z,0.77
2023-03-25T07:26:24.719Z,0.50
2023-03-25T07:28:53.283Z,0.60
2023-03-25T07:31:23.170Z,0.60
2023-03-25T07:33:52.400Z,0.80
2023-03-25T07:36:23.659Z,0.97
2023-03-25T07:38:52.715Z,1.10
2023-03-25T07:41:23.922Z,0.90
2023-03-25T07:43:52.516Z,1.17
2023-03-25T07:46:21.294Z,0.73
2023-03-25T07:48:49.946Z,0.83
2023-03-25T07:51:18.580Z,0.90
2023-03-25T07:53:47.122Z,0.70
2023-03-25T07:56:15.745Z,1.03
2023-03-25T07:58:46.449Z,1.07
2023-03-25T08:01:15.677Z,0.83
2023-03-25T08:03:44.356Z,0.90
2023-03-25T08:06:12.988Z,0.70
2023-03-25T08:08:41.666Z,0.80
2023-03-25T08:11:10.724Z,0.70
2023-03-25T08:13:39.487Z,1.00
2023-03-25T08:16:13.285Z,0.77
2023-03-25T08:18:45.354Z,0.90
2023-03-25T08:21:14.247Z,0.60
2023-03-25T08:23:44.564Z,0.70
2023-03-25T08:26:13.369Z,0.93
2023-03-25T08:28:41.934Z,1.60
2023-03-25T08:31:12.006Z,0.70
2023-03-25T08:33:41.214Z,0.80
2023-03-25T08:36:13.925Z,0.83
2023-03-25T08:38:43.831Z,0.77
2023-03-25T08:41:12.433Z,0.70
2023-03-25T08:43:41.078Z,0.90
2023-03-25T08:46:09.760Z,0.60
2023-03-25T08:48:39.821Z,0.60
2023-03-25T08:51:11.039Z,0.63
2023-03-25T08:53:39.633Z,0.67
2023-03-25T08:56:09.210Z,0.60
2023-03-25T08:58:37.868Z,0.70
2023-03-25T09:01:06.840Z,1.23
2023-03-25T09:03:37.680Z,0.80
2023-03-25T09:06:08.571Z,0.50
2023-03-25T09:08:37.853Z,0.80
2023-03-25T09:11:06.940Z,0.60
2023-03-25T09:13:35.779Z,0.70
2023-03-25T09:16:04.530Z,0.70
2023-03-25T09:18:33.178Z,0.57
2023-03-25T09:21:01.935Z,0.87
2023-03-25T09:23:31.997Z,1.00
2023-03-25T09:26:03.795Z,0.90
2023-03-25T09:28:32.464Z,0.80
2023-03-25T09:31:01.245Z,1.03
2023-03-25T09:33:30.127Z,0.60
2023-03-25T09:35:58.760Z,0.60
2023-03-25T09:38:28.627Z,0.80
2023-03-25T09:40:58.636Z,0.57
2023-03-25T09:43:34.316Z,0.80
2023-03-25T09:46:03.587Z,0.70
2023-03-25T09:48:34.093Z,0.57
2023-03-25T09:51:04.380Z,0.70
2023-03-25T09:53:36.335Z,1.23
2023-03-25T09:56:07.659Z,0.60
2023-03-25T09:58:41.482Z,0.70
2023-03-25T10:01:20.378Z,0.87
2023-03-25T10:04:04.232Z,0.63
2023-03-25T10:06:33.912Z,0.70
2023-03-25T10:09:25.153Z,0.90
2023-03-25T10:11:57.843Z,0.60
2023-03-25T10:14:28.366Z,0.60
2023-03-25T10:17:03.714Z,0.70
2023-03-25T10:19:42.831Z,0.60
2023-03-25T10:22:13.469Z,0.70
2023-03-25T10:24:43.450Z,0.60
2023-03-25T10:27:16.481Z,0.70
2023-03-25T10:29:46.941Z,0.80
2023-03-25T10:32:17.984Z,1.03
2023-03-25T10:34:49.800Z,0.70
2023-03-25T10:37:19.044Z,0.63
2023-03-25T10:39:49.934Z,0.67
2023-03-25T10:42:27.483Z,0.70
2023-03-25T10:44:56.108Z,1.00
2023-03-25T10:47:26.358Z,0.70
2023-03-25T10:49:55.042Z,0.60
2023-03-25T10:52:23.664Z,0.70
2023-03-25T10:54:54.986Z,0.90
2023-03-25T10:57:27.789Z,0.73
2023-03-25T11:00:01.942Z,0.90
2023-03-25T11:02:31.336Z,0.70
2023-03-25T11:05:01.051Z,0.80
2023-03-25T11:07:31.443Z,0.73
2023-03-25T11:10:16.423Z,0.80
2023-03-25T11:12:46.662Z,0.77
2023-03-25T11:15:17.200Z,1.10
2023-03-25T11:17:46.717Z,0.80
2023-03-25T11:20:20.581Z,0.60
2023-03-25T11:22:51.333Z,0.60
2023-03-25T11:25:21.274Z,0.50
2023-03-25T11:27:53.384Z,0.80
2023-03-25T11:30:23.224Z,0.67
2023-03-25T11:33:01.009Z,0.70
2023-03-25T11:35:31.420Z,0.70
2023-03-25T11:38:01.246Z,0.70
2023-03-25T11:40:30.493Z,0.87
2023-03-25T11:43:01.288Z,0.93
2023-03-25T11:45:35.157Z,0.70
2023-03-25T11:48:10.319Z,0.50
2023-03-25T11:50:38.977Z,0.60
2023-03-25T11:53:07.575Z,0.50
2023-03-25T11:55:43.104Z,0.60
2023-03-25T11:58:15.514Z,0.70
2023-03-25T12:00:47.939Z,0.80
2023-03-25T12:03:20.838Z,0.60
2023-03-25T12:06:01.345Z,0.77
2023-03-25T12:08:42.339Z,0.70
2023-03-25T12:11:12.570Z,0.67
2023-03-25T12:13:51.389Z,0.70
2023-03-25T12:16:25.747Z,0.70
2023-03-25T12:19:03.291Z,0.67
2023-03-25T12:21:42.459Z,0.70
2023-03-25T12:24:17.821Z,0.60
2023-03-25T12:26:48.912Z,0.83
2023-03-25T12:29:32.585Z,0.67
2023-03-25T12:32:11.346Z,0.73
2023-03-25T12:34:46.190Z,0.80
2023-03-25T12:37:21.441Z,0.97
2023-03-25T12:39:55.226Z,0.80
2023-03-25T12:42:33.463Z,0.90
2023-03-25T12:45:16.734Z,0.80
2023-03-25T12:47:45.534Z,0.60
2023-03-25T12:50:22.246Z,0.60
2023-03-25T12:52:56.272Z,0.70
2023-03-25T12:55:41.671Z,0.80
2023-03-25T12:58:21.856Z,0.60
2023-03-25T13:00:55.016Z,0.70
2023-03-25T13:03:56.699Z,0.73
2023-03-25T13:06:30.233Z,0.70
2023-03-25T13:09:00.413Z,0.60
2023-03-25T13:11:31.746Z,0.90
2023-03-25T13:14:02.216Z,0.57
2023-03-25T13:16:32.903Z,0.80
2023-03-25T13:19:03.291Z,0.50
2023-03-25T13:21:33.213Z,0.60
2023-03-25T13:24:03.066Z,0.50
2023-03-25T13:26:32.148Z,0.50
2023-03-25T13:29:02.070Z,0.70
2023-03-25T13:31:35.472Z,0.70
2023-03-25T13:34:11.513Z,0.50
2023-03-25T13:36:41.708Z,0.40
2023-03-25T13:39:14.062Z,0.60
2023-03-25T13:41:43.697Z,0.57
2023-03-25T13:44:14.174Z,0.50
2023-03-25T13:46:46.268Z,0.53
2023-03-25T13:49:17.784Z,0.50
2023-03-25T13:51:46.379Z,0.70
2023-03-25T13:54:17.627Z,0.67
2023-03-25T13:57:19.211Z,0.50
2023-03-25T14:00:21.706Z,0.80
2023-03-25T14:03:12.318Z,0.53
2023-03-25T14:05:56.304Z,0.70
2023-03-25T14:08:58.942Z,1.00
2023-03-25T14:11:27.554Z,0.70
2023-03-25T14:13:58.270Z,0.70
2023-03-25T14:16:29.019Z,0.67
2023-03-25T14:19:02.689Z,1.10
2023-03-25T14:21:36.182Z,0.90
2023-03-25T14:24:06.843Z,0.60
2023-03-25T14:26:36.058Z,0.70
2023-03-25T14:29:07.778Z,0.53
2023-03-25T14:31:36.445Z,0.50
2023-03-25T14:34:24.574Z,0.50
2023-03-25T14:37:19.122Z,0.53
2023-03-25T14:39:47.833Z,0.50
2023-03-25T14:42:30.358Z,0.53
2023-03-25T14:45:39.004Z,0.60
2023-03-25T14:48:22.908Z,0.60
2023-03-25T14:51:23.103Z,0.87
2023-03-25T14:53:56.296Z,0.80
2023-03-25T14:56:26.582Z,0.60
2023-03-25T14:58:57.984Z,0.60
2023-03-25T15:01:30.341Z,0.80
2023-03-25T15:04:11.756Z,0.50
2023-03-25T15:06:41.851Z,0.70
2023-03-25T15:09:12.514Z,0.50
2023-03-25T15:11:41.846Z,0.97
2023-03-25T15:14:13.420Z,0.70
2023-03-25T15:16:58.840Z,0.67
2023-03-25T15:19:27.958Z,0.60
2023-03-25T15:22:23.159Z,0.60
2023-03-25T15:24:56.606Z,0.60
2023-03-25T15:28:04.450Z,0.70
2023-03-25T15:30:53.123Z,0.70
2023-03-25T15:33:30.982Z,0.57
2023-03-25T15:36:13.340Z,0.50
2023-03-25T15:39:04.783Z,0.60
2023-03-25T15:42:06.439Z,0.70
2023-03-25T15:45:04.754Z,0.73
2023-03-25T15:48:03.117Z,0.70
2023-03-25T15:50:45.774Z,0.60
2023-03-25T15:53:47.216Z,0.60
2023-03-25T15:56:18.028Z,0.90
2023-03-25T15:58:51.110Z,0.80
2023-03-25T16:01:23.015Z,0.83
2023-03-25T16:03:57.246Z,0.93
2023-03-25T16:06:25.867Z,1.20
2023-03-25T16:08:54.478Z,0.83
2023-03-25T16:11:28.053Z,1.67
2023-03-25T16:14:08.277Z,0.80
2023-03-25T16:16:38.099Z,1.03
2023-03-25T16:19:09.354Z,0.77
2023-03-25T16:21:37.970Z,0.70
2023-03-25T16:24:08.058Z,1.17
2023-03-25T16:26:43.150Z,0.70
2023-03-25T16:29:17.712Z,1.03
2023-03-25T16:31:54.770Z,0.90
2023-03-25T16:34:23.381Z,0.60
2023-03-25T16:36:52.876Z,0.73
2023-03-25T16:39:21.746Z,1.10
2023-03-25T16:41:52.502Z,1.20
2023-03-25T16:44:23.134Z,1.40
2023-03-25T16:46:52.796Z,1.20
2023-03-25T16:49:23.146Z,1.27
2023-03-25T16:51:51.686Z,1.47
2023-03-25T16:54:28.733Z,1.53
2023-03-25T16:56:58.713Z,1.20
2023-03-25T16:59:28.959Z,1.17
2023-03-25T17:01:58.524Z,1.50
2023-03-25T17:04:29.878Z,1.00
2023-03-25T17:06:59.306Z,1.00
2023-03-25T17:09:34.172Z,0.93
2023-03-25T17:12:07.357Z,1.07
2023-03-25T17:14:37.258Z,1.73
2023-03-25T17:17:27.554Z,1.70
2023-03-25T17:19:56.164Z,1.63
2023-03-25T17:22:28.133Z,1.30
2023-03-25T17:24:57.997Z,1.33
2023-03-25T17:27:29.154Z,1.30
2023-03-25T17:30:00.155Z,1.40
2023-03-25T17:32:28.837Z,1.47
2023-03-25T17:34:58.999Z,1.83
2023-03-25T17:37:27.807Z,1.10
2023-03-25T17:39:56.478Z,0.90
2023-03-25T17:42:26.890Z,1.20
2023-03-25T17:44:55.517Z,1.23
2023-03-25T17:47:24.225Z,1.30
2023-03-25T17:49:53.615Z,1.40
2023-03-25T17:52:22.239Z,1.13
2023-03-25T17:54:51.440Z,1.20
2023-03-25T17:57:20.392Z,1.33
2023-03-25T17:59:51.505Z,1.40
2023-03-25T18:02:20.099Z,1.30
2023-03-25T18:04:49.518Z,1.00
2023-03-25T18:07:21.151Z,1.00
2023-03-25T18:09:50.003Z,1.00
2023-03-25T18:12:18.630Z,1.50
2023-03-25T18:14:47.166Z,1.00
2023-03-25T18:17:17.120Z,1.43
2023-03-25T18:19:45.821Z,1.87
2023-03-25T18:24:47.827Z,1.57
2023-03-25T18:27:16.376Z,2.07
2023-03-25T18:29:45.770Z,2.00
2023-03-25T18:32:14.332Z,2.17
2023-03-25T18:34:44.731Z,1.87
2023-03-25T18:37:13.334Z,1.50
2023-03-25T18:39:41.965Z,1.10
2023-03-25T18:42:10.513Z,1.30
2023-03-25T18:44:39.099Z,1.70
2023-03-25T18:47:07.710Z,1.67
2023-03-25T18:49:36.349Z,1.47
2023-03-25T18:52:06.512Z,1.50
2023-03-25T18:54:35.212Z,1.57
2023-03-25T18:57:03.839Z,1.60
2023-03-25T18:59:32.565Z,1.30
2023-03-25T19:02:01.185Z,1.30
2023-03-25T19:04:32.401Z,1.20
2023-03-25T19:07:01.190Z,1.27
2023-03-25T19:09:32.040Z,1.50
2023-03-25T19:12:00.674Z,1.30
2023-03-25T19:14:29.291Z,1.53
2023-03-25T19:17:04.059Z,1.13
2023-03-25T19:19:33.037Z,1.47
2023-03-25T19:22:01.656Z,1.27
2023-03-25T19:24:31.827Z,1.63
2023-03-25T19:27:00.504Z,1.53
2023-03-25T19:29:29.297Z,1.27
2023-03-25T19:31:57.957Z,1.07
2023-03-25T19:34:26.637Z,1.80
2023-03-25T19:37:02.419Z,0.93
2023-03-25T19:39:32.504Z,1.50
2023-03-25T19:42:01.212Z,2.00
2023-03-25T19:44:29.850Z,1.43
2023-03-25T19:46:58.503Z,1.73
2023-03-25T19:49:39.190Z,1.13
2023-03-25T19:52:08.735Z,1.40
2023-03-25T19:54:38.730Z,1.20
2023-03-25T19:57:09.448Z,0.80
2023-03-25T19:59:38.245Z,0.90
2023-03-25T20:02:07.187Z,0.87
2023-03-25T20:04:36.606Z,0.93
2023-03-25T20:07:06.067Z,0.90
2023-03-25T20:09:34.741Z,0.60
2023-03-25T20:12:04.939Z,0.70
2023-03-25T20:14:33.586Z,0.53
2023-03-25T20:17:02.265Z,0.60
2023-03-25T20:19:30.887Z,0.80
2023-03-25T20:21:59.529Z,0.73
2023-03-25T20:24:28.213Z,0.67
2023-03-25T20:26:56.887Z,0.60
2023-03-25T20:29:26.928Z,1.10
2023-03-25T20:31:55.575Z,0.80
2023-03-25T20:34:24.204Z,0.97
2023-03-25T20:36:54.321Z,0.70
2023-03-25T20:39:22.990Z,0.80
2023-03-25T20:41:51.624Z,0.90
2023-03-25T20:44:20.289Z,0.60
2023-03-25T20:46:50.559Z,0.80
2023-03-25T20:49:21.641Z,0.67
2023-03-25T20:51:50.967Z,0.90
2023-03-25T20:54:19.509Z,0.70
2023-03-25T20:56:48.234Z,0.70
2023-03-25T20:59:17.966Z,0.70
2023-03-25T21:01:53.093Z,0.70
2023-03-25T21:04:23.339Z,0.80
2023-03-25T21:06:52.095Z,0.57
2023-03-25T21:09:21.409Z,0.50
2023-03-25T21:11:50.047Z,0.60
2023-03-25T21:14:19.180Z,0.63
2023-03-25T21:16:47.899Z,0.57
2023-03-25T21:19:16.570Z,0.70
2023-03-25T21:21:46.601Z,0.70
2023-03-25T21:24:16.800Z,0.60
2023-03-25T21:26:45.445Z,0.70
2023-03-25T21:29:14.077Z,0.90
2023-03-25T21:31:42.708Z,0.63
2023-03-25T21:34:16.539Z,0.83
2023-03-25T21:36:46.527Z,0.80
2023-03-25T21:39:15.185Z,0.93
2023-03-25T21:41:43.825Z,0.60
2023-03-25T21:44:14.328Z,0.90
2023-03-25T21:46:44.945Z,0.80
2023-03-25T21:49:15.390Z,0.83
2023-03-25T21:51:56.651Z,0.70
2023-03-25T21:54:25.702Z,0.90
2023-03-25T21:56:54.817Z,0.70
2023-03-25T21:59:23.629Z,0.80
2023-03-25T22:02:01.109Z,0.87
2023-03-25T22:04:29.795Z,0.70
2023-03-25T22:06:59.886Z,1.13
2023-03-25T22:09:28.542Z,0.97
2023-03-25T22:11:57.226Z,0.90
2023-03-25T22:14:25.912Z,1.37
2023-03-25T22:16:54.637Z,0.80
2023-03-25T22:19:24.759Z,0.90
2023-03-25T22:21:53.497Z,0.90
2023-03-25T22:24:23.568Z,0.70
2023-03-25T22:26:52.414Z,0.93
2023-03-25T22:29:21.144Z,1.00
2023-03-25T22:31:50.808Z,0.90
2023-03-25T22:34:19.592Z,1.33
2023-03-25T22:36:51.074Z,0.87
2023-03-25T22:39:20.154Z,0.97
2023-03-25T22:41:50.431Z,1.40
2023-03-25T22:44:19.266Z,1.00
2023-03-25T22:46:48.113Z,1.00
2023-03-25T22:49:16.831Z,1.13
2023-03-25T22:51:45.511Z,0.93
2023-03-25T22:54:14.185Z,1.17
2023-03-25T22:56:43.603Z,1.00
2023-03-25T22:59:14.194Z,1.10
2023-03-25T23:01:42.917Z,1.10
2023-03-25T23:04:11.563Z,1.10
2023-03-25T23:06:41.732Z,1.03
2023-03-25T23:09:10.987Z,1.60
2023-03-25T23:11:39.693Z,1.13
2023-03-25T23:14:09.563Z,1.53
2023-03-25T23:16:41.615Z,1.30
2023-03-25T23:19:10.568Z,1.23
2023-03-25T23:21:40.567Z,1.63
2023-03-25T23:24:09.793Z,1.40
2023-03-25T23:26:39.824Z,1.23
2023-03-25T23:29:10.165Z,1.00
2023-03-25T23:31:42.130Z,1.27
2023-03-25T23:34:12.118Z,1.00
2023-03-25T23:36:40.741Z,1.37
2023-03-25T23:39:11.100Z,1.50
2023-03-25T23:41:39.787Z,1.17
2023-03-25T23:44:08.789Z,1.27
2023-03-25T23:46:37.490Z,1.23
2023-03-25T23:49:07.740Z,1.40
2023-03-25T23:51:37.615Z,1.40
2023-03-25T23:54:06.510Z,1.40
2023-03-25T23:56:35.402Z,1.57
2023-03-25T23:59:04.304Z,1.40
